sensor_id;sensor_type;location;lat;lon;timestamp;pressure;altitude;pressure_sealevel;temperature;humidity
20228;BME280;12195;55.790;37.572;2024-03-08T00:01:59;99864.17;;;-3.01;62.25
20228;BME280;12195;55.790;37.572;2024-03-08T00:04:36;99865.03;;;-3.04;62.18
20228;BME280;12195;55.790;37.572;2024-03-08T00:07:08;99851.33;;;-3.10;62.40
20228;BME280;12195;55.790;37.572;2024-03-08T00:09:40;99851.31;;;-3.15;62.54
20228;BME280;12195;55.790;37.572;2024-03-08T00:12:12;99847.03;;;-3.17;62.88
20228;BME280;12195;55.790;37.572;2024-03-08T00:14:45;99845.33;;;-3.18;62.89
20228;BME280;12195;55.790;37.572;2024-03-08T00:17:19;99848.77;;;-3.09;62.53
20228;BME280;12195;55.790;37.572;2024-03-08T00:19:55;99838.49;;;-3.03;62.36
20228;BME280;12195;55.790;37.572;2024-03-08T00:22:28;99841.89;;;-3.10;62.34
20228;BME280;12195;55.790;37.572;2024-03-08T00:25:02;99829.08;;;-3.13;62.27
20228;BME280;12195;55.790;37.572;2024-03-08T00:27:34;99820.52;;;-3.12;62.29
20228;BME280;12195;55.790;37.572;2024-03-08T00:30:08;99823.08;;;-3.19;62.56
20228;BME280;12195;55.790;37.572;2024-03-08T00:32:41;99823.06;;;-3.24;62.75
20228;BME280;12195;55.790;37.572;2024-03-08T00:35:14;99811.95;;;-3.27;62.86
20228;BME280;12195;55.790;37.572;2024-03-08T00:37:47;99812.77;;;-3.28;63.04
20228;BME280;12195;55.790;37.572;2024-03-08T00:40:19;99811.08;;;-3.26;62.93
20228;BME280;12195;55.790;37.572;2024-03-08T00:42:52;99806.80;;;-3.30;63.31
20228;BME280;12195;55.790;37.572;2024-03-08T00:45:24;99799.94;;;-3.28;63.61
20228;BME280;12195;55.790;37.572;2024-03-08T00:47:57;99796.55;;;-3.18;63.38
20228;BME280;12195;55.790;37.572;2024-03-08T00:50:29;99796.58;;;-3.05;63.24
20228;BME280;12195;55.790;37.572;2024-03-08T00:53:02;99793.14;;;-2.96;63.64
20228;BME280;12195;55.790;37.572;2024-03-08T00:55:37;99783.73;;;-2.84;63.78
20228;BME280;12195;55.790;37.572;2024-03-08T00:58:09;99776.02;;;-2.72;63.67
20228;BME280;12195;55.790;37.572;2024-03-08T01:00:41;99774.28;;;-2.61;62.78
20228;BME280;12195;55.790;37.572;2024-03-08T01:03:14;99770.02;;;-2.57;62.63
20228;BME280;12195;55.790;37.572;2024-03-08T01:05:46;99764.02;;;-2.52;62.28
20228;BME280;12195;55.790;37.572;2024-03-08T01:08:19;99757.16;;;-2.56;62.23
20228;BME280;12195;55.790;37.572;2024-03-08T01:10:51;99759.73;;;-2.60;62.05
20228;BME280;12195;55.790;37.572;2024-03-08T01:13:24;99753.75;;;-2.64;62.03
20228;BME280;12195;55.790;37.572;2024-03-08T01:15:56;99760.61;;;-2.70;62.26
20228;BME280;12195;55.790;37.572;2024-03-08T01:18:29;99758.05;;;-2.70;62.18
20228;BME280;12195;55.790;37.572;2024-03-08T01:21:02;99763.17;;;-2.73;62.38
20228;BME280;12195;55.790;37.572;2024-03-08T01:23:34;99758.88;;;-2.73;62.35
20228;BME280;12195;55.790;37.572;2024-03-08T01:26:06;99751.16;;;-2.61;61.90
20228;BME280;12195;55.790;37.572;2024-03-08T01:28:39;99759.73;;;-2.62;62.22
20228;BME280;12195;55.790;37.572;2024-03-08T01:31:12;99753.73;;;-2.55;62.18
20228;BME280;12195;55.790;37.572;2024-03-08T01:33:44;99758.84;;;-2.47;62.60
20228;BME280;12195;55.790;37.572;2024-03-08T01:36:17;99754.55;;;-2.41;62.34
20228;BME280;12195;55.790;37.572;2024-03-08T01:38:51;99752.81;;;-2.31;62.26
20228;BME280;12195;55.790;37.572;2024-03-08T01:41:25;99751.07;;;-2.28;62.44
20228;BME280;12195;55.790;37.572;2024-03-08T01:43:58;99750.20;;;-2.24;62.27
20228;BME280;12195;55.790;37.572;2024-03-08T01:46:31;99749.30;;;-2.09;61.48
20228;BME280;12195;55.790;37.572;2024-03-08T01:49:04;99742.52;;;-2.25;61.12
20228;BME280;12195;55.790;37.572;2024-03-08T01:51:37;99740.83;;;-2.31;61.11
20228;BME280;12195;55.790;37.572;2024-03-08T01:54:10;99739.12;;;-2.38;60.87
20228;BME280;12195;55.790;37.572;2024-03-08T01:56:43;99742.56;;;-2.37;60.78
20228;BME280;12195;55.790;37.572;2024-03-08T01:59:16;99747.75;;;-2.61;61.00
20228;BME280;12195;55.790;37.572;2024-03-08T02:01:49;99745.19;;;-2.76;61.28
20228;BME280;12195;55.790;37.572;2024-03-08T02:04:22;99748.63;;;-2.89;61.62
20228;BME280;12195;55.790;37.572;2024-03-08T02:06:55;99747.77;;;-3.02;62.02
20228;BME280;12195;55.790;37.572;2024-03-08T02:09:29;99747.77;;;-3.14;62.36
20228;BME280;12195;55.790;37.572;2024-03-08T02:12:01;99740.95;;;-3.19;62.25
20228;BME280;12195;55.790;37.572;2024-03-08T02:14:34;99734.09;;;-3.14;62.33
20228;BME280;12195;55.790;37.572;2024-03-08T02:17:07;99735.81;;;-3.21;62.34
20228;BME280;12195;55.790;37.572;2024-03-08T02:19:41;99732.39;;;-3.26;62.37
20228;BME280;12195;55.790;37.572;2024-03-08T02:22:14;99740.06;;;-3.33;62.59
20228;BME280;12195;55.790;37.572;2024-03-08T02:24:47;99736.66;;;-3.34;62.25
20228;BME280;12195;55.790;37.572;2024-03-08T02:27:24;99737.48;;;-3.45;62.61
20228;BME280;12195;55.790;37.572;2024-03-08T02:29:58;99739.20;;;-3.47;62.86
20228;BME280;12195;55.790;37.572;2024-03-08T02:32:31;99737.48;;;-3.45;62.66
20228;BME280;12195;55.790;37.572;2024-03-08T02:35:05;99729.79;;;-3.44;62.97
20228;BME280;12195;55.790;37.572;2024-03-08T02:37:37;99732.36;;;-3.42;62.96
20228;BME280;12195;55.790;37.572;2024-03-08T02:40:10;99726.36;;;-3.43;63.41
20228;BME280;12195;55.790;37.572;2024-03-08T02:42:43;99728.11;;;-3.30;63.14
20228;BME280;12195;55.790;37.572;2024-03-08T02:45:16;99735.80;;;-3.25;63.01
20228;BME280;12195;55.790;37.572;2024-03-08T02:47:48;99721.24;;;-3.20;63.30
20228;BME280;12195;55.790;37.572;2024-03-08T02:50:23;99721.27;;;-3.22;62.82
20228;BME280;12195;55.790;37.572;2024-03-08T02:52:56;99724.66;;;-3.24;62.63
20228;BME280;12195;55.790;37.572;2024-03-08T02:55:29;99721.25;;;-3.29;62.80
20228;BME280;12195;55.790;37.572;2024-03-08T02:58:02;99713.55;;;-3.40;62.87
20228;BME280;12195;55.790;37.572;2024-03-08T03:00:35;99710.13;;;-3.43;62.81
20228;BME280;12195;55.790;37.572;2024-03-08T03:03:08;99715.26;;;-3.52;62.99
20228;BME280;12195;55.790;37.572;2024-03-08T03:05:41;99712.67;;;-3.57;63.18
20228;BME280;12195;55.790;37.572;2024-03-08T03:08:16;99704.97;;;-3.60;63.45
20228;BME280;12195;55.790;37.572;2024-03-08T03:10:49;99701.56;;;-3.62;63.36
20228;BME280;12195;55.790;37.572;2024-03-08T03:13:23;99697.28;;;-3.66;63.33
20228;BME280;12195;55.790;37.572;2024-03-08T03:15:55;99701.55;;;-3.65;63.17
20228;BME280;12195;55.790;37.572;2024-03-08T03:18:29;99697.28;;;-3.64;63.20
20228;BME280;12195;55.790;37.572;2024-03-08T03:21:04;99697.28;;;-3.66;63.33
20228;BME280;12195;55.790;37.572;2024-03-08T03:23:39;99698.97;;;-3.59;63.11
20228;BME280;12195;55.790;37.572;2024-03-08T03:26:12;99692.16;;;-3.57;63.27
20228;BME280;12195;55.790;37.572;2024-03-08T03:28:44;99692.99;;;-3.55;63.64
20228;BME280;12195;55.790;37.572;2024-03-08T03:31:17;99680.20;;;-3.47;63.23
20228;BME280;12195;55.790;37.572;2024-03-08T03:33:49;99673.34;;;-3.44;63.54
20228;BME280;12195;55.790;37.572;2024-03-08T03:36:25;99664.79;;;-3.40;64.01
20228;BME280;12195;55.790;37.572;2024-03-08T03:38:59;99663.94;;;-3.33;63.67
20228;BME280;12195;55.790;37.572;2024-03-08T03:41:39;99672.50;;;-3.25;63.58
20228;BME280;12195;55.790;37.572;2024-03-08T03:44:12;99669.91;;;-3.19;63.55
20228;BME280;12195;55.790;37.572;2024-03-08T03:46:45;99675.92;;;-3.15;63.58
20228;BME280;12195;55.790;37.572;2024-03-08T03:49:18;99676.75;;;-3.15;63.53
20228;BME280;12195;55.790;37.572;2024-03-08T03:51:52;99675.03;;;-3.10;63.49
20228;BME280;12195;55.790;37.572;2024-03-08T03:54:25;99669.05;;;-3.01;63.03
20228;BME280;12195;55.790;37.572;2024-03-08T03:56:57;99668.17;;;-3.02;63.21
20228;BME280;12195;55.790;37.572;2024-03-08T03:59:30;99673.31;;;-3.02;63.32
20228;BME280;12195;55.790;37.572;2024-03-08T04:02:02;99672.48;;;-3.01;63.08
20228;BME280;12195;55.790;37.572;2024-03-08T04:04:35;99667.34;;;-2.99;63.36
20228;BME280;12195;55.790;37.572;2024-03-08T04:07:08;99663.05;;;-2.97;63.13
20228;BME280;12195;55.790;37.572;2024-03-08T04:09:41;99660.48;;;-2.97;63.22
20228;BME280;12195;55.790;37.572;2024-03-08T04:12:13;99667.31;;;-2.95;63.62
20228;BME280;12195;55.790;37.572;2024-03-08T04:14:47;99655.34;;;-2.93;64.01
20228;BME280;12195;55.790;37.572;2024-03-08T04:17:20;99655.33;;;-2.82;63.09
20228;BME280;12195;55.790;37.572;2024-03-08T04:19:54;99646.75;;;-2.84;63.41
20228;BME280;12195;55.790;37.572;2024-03-08T04:22:26;99647.58;;;-2.79;62.80
20228;BME280;12195;55.790;37.572;2024-03-08T04:24:59;99643.31;;;-2.77;62.88
20228;BME280;12195;55.790;37.572;2024-03-08T04:27:33;99651.89;;;-2.78;63.26
20228;BME280;12195;55.790;37.572;2024-03-08T04:30:07;99654.42;;;-2.77;63.42
20228;BME280;12195;55.790;37.572;2024-03-08T04:32:41;99646.72;;;-2.69;62.93
20228;BME280;12195;55.790;37.572;2024-03-08T04:35:15;99650.98;;;-2.71;62.64
20228;BME280;12195;55.790;37.572;2024-03-08T04:37:47;99651.86;;;-2.75;62.96
20228;BME280;12195;55.790;37.572;2024-03-08T04:40:20;99652.72;;;-2.78;63.20
20228;BME280;12195;55.790;37.572;2024-03-08T04:42:53;99648.45;;;-2.79;63.42
20228;BME280;12195;55.790;37.572;2024-03-08T04:45:25;99644.15;;;-2.72;63.14
20228;BME280;12195;55.790;37.572;2024-03-08T04:47:58;99642.45;;;-2.72;63.58
20228;BME280;12195;55.790;37.572;2024-03-08T04:50:30;99639.02;;;-2.72;63.53
20228;BME280;12195;55.790;37.572;2024-03-08T04:53:03;99637.31;;;-2.73;63.27
20228;BME280;12195;55.790;37.572;2024-03-08T04:55:38;99640.72;;;-2.70;63.65
20228;BME280;12195;55.790;37.572;2024-03-08T04:58:10;99633.00;;;-2.71;63.71
20228;BME280;12195;55.790;37.572;2024-03-08T05:00:43;99634.70;;;-2.69;63.84
20228;BME280;12195;55.790;37.572;2024-03-08T05:03:16;99634.70;;;-2.69;63.72
20228;BME280;12195;55.790;37.572;2024-03-08T05:05:49;99625.30;;;-2.64;63.78
20228;BME280;12195;55.790;37.572;2024-03-08T05:08:21;99622.73;;;-2.64;64.22
20228;BME280;12195;55.790;37.572;2024-03-08T05:10:53;99625.26;;;-2.55;63.84
20228;BME280;12195;55.790;37.572;2024-03-08T05:13:26;99620.98;;;-2.56;64.07
20228;BME280;12195;55.790;37.572;2024-03-08T05:16:00;99614.11;;;-2.57;64.36
20228;BME280;12195;55.790;37.572;2024-03-08T05:18:35;99611.54;;;-2.54;64.94
20228;BME280;12195;55.790;37.572;2024-03-08T05:21:10;99607.21;;;-2.40;64.46
20228;BME280;12195;55.790;37.572;2024-03-08T05:23:43;99608.05;;;-2.41;64.08
20228;BME280;12195;55.790;37.572;2024-03-08T05:26:16;99611.48;;;-2.42;64.31
20228;BME280;12195;55.790;37.572;2024-03-08T05:28:48;99596.07;;;-2.42;64.99
20228;BME280;12195;55.790;37.572;2024-03-08T05:31:22;99594.33;;;-2.38;65.32
20228;BME280;12195;55.790;37.572;2024-03-08T05:33:54;99600.28;;;-2.32;65.16
20228;BME280;12195;55.790;37.572;2024-03-08T05:36:27;99601.09;;;-2.24;65.35
20228;BME280;12195;55.790;37.572;2024-03-08T05:39:00;99612.23;;;-2.19;64.72
20228;BME280;12195;55.790;37.572;2024-03-08T05:41:33;99603.60;;;-2.12;65.09
20228;BME280;12195;55.790;37.572;2024-03-08T05:44:05;99605.29;;;-2.08;64.77
20228;BME280;12195;55.790;37.572;2024-03-08T05:46:38;99602.71;;;-2.05;64.74
20228;BME280;12195;55.790;37.572;2024-03-08T05:49:11;99594.10;;;-1.98;64.68
20228;BME280;12195;55.790;37.572;2024-03-08T05:51:44;99607.69;;;-1.79;64.36
20228;BME280;12195;55.790;37.572;2024-03-08T05:54:19;99606.89;;;-1.89;64.14
20228;BME280;12195;55.790;37.572;2024-03-08T05:56:54;99602.56;;;-1.85;64.44
20228;BME280;12195;55.790;37.572;2024-03-08T05:59:27;99601.69;;;-1.83;64.72
20228;BME280;12195;55.790;37.572;2024-03-08T06:02:00;99610.25;;;-1.76;64.30
20228;BME280;12195;55.790;37.572;2024-03-08T06:04:34;99605.95;;;-1.79;64.95
20228;BME280;12195;55.790;37.572;2024-03-08T06:07:07;99604.17;;;-1.69;64.81
20228;BME280;12195;55.790;37.572;2024-03-08T06:09:40;99595.56;;;-1.67;64.51
20228;BME280;12195;55.790;37.572;2024-03-08T06:12:14;99593.75;;;-1.51;64.24
20228;BME280;12195;55.790;37.572;2024-03-08T06:14:48;99597.20;;;-1.54;64.05
20228;BME280;12195;55.790;37.572;2024-03-08T06:17:20;99603.19;;;-1.55;64.73
20228;BME280;12195;55.790;37.572;2024-03-08T06:19:55;99603.96;;;-1.44;64.12
20228;BME280;12195;55.790;37.572;2024-03-08T06:22:30;99599.68;;;-1.43;65.17
20228;BME280;12195;55.790;37.572;2024-03-08T06:25:02;99597.91;;;-1.37;64.96
20228;BME280;12195;55.790;37.572;2024-03-08T06:27:35;99601.28;;;-1.32;64.97
20228;BME280;12195;55.790;37.572;2024-03-08T06:30:08;99598.62;;;-1.23;65.62
20228;BME280;12195;55.790;37.572;2024-03-08T06:32:44;99606.22;;;-1.09;65.47
20228;BME280;12195;55.790;37.572;2024-03-08T06:35:17;99596.68;;;-1.00;65.32
20228;BME280;12195;55.790;37.572;2024-03-08T06:37:51;99592.29;;;-0.90;64.97
20228;BME280;12195;55.790;37.572;2024-03-08T06:40:23;99588.70;;;-0.79;64.73
20228;BME280;12195;55.790;37.572;2024-03-08T06:42:56;99597.26;;;-0.77;65.45
20228;BME280;12195;55.790;37.572;2024-03-08T06:45:29;99590.23;;;-0.63;65.26
20228;BME280;12195;55.790;37.572;2024-03-08T06:48:02;99588.36;;;-0.52;64.60
20228;BME280;12195;55.790;37.572;2024-03-08T06:50:35;99586.53;;;-0.42;64.60
20228;BME280;12195;55.790;37.572;2024-03-08T06:53:07;99576.98;;;-0.36;64.21
20228;BME280;12195;55.790;37.572;2024-03-08T06:55:41;99586.30;;;-0.24;64.92
20228;BME280;12195;55.790;37.572;2024-03-08T06:58:13;99586.98;;;-0.13;64.01
20228;BME280;12195;55.790;37.572;2024-03-08T07:00:47;99584.31;;;-0.06;63.43
20228;BME280;12195;55.790;37.572;2024-03-08T07:03:22;99574.66;;;0.07;64.31
20228;BME280;12195;55.790;37.572;2024-03-08T07:05:55;99572.75;;;0.20;63.85
20228;BME280;12195;55.790;37.572;2024-03-08T07:08:30;99582.77;;;0.38;62.66
20228;BME280;12195;55.790;37.572;2024-03-08T07:11:03;99575.13;;;0.33;63.42
20228;BME280;12195;55.790;37.572;2024-03-08T07:13:36;99577.57;;;0.41;62.62
20228;BME280;12195;55.790;37.572;2024-03-08T07:16:09;99591.25;;;0.46;63.03
20228;BME280;12195;55.790;37.572;2024-03-08T07:18:42;99581.69;;;0.51;63.42
20228;BME280;12195;55.790;37.572;2024-03-08T07:21:15;99584.17;;;0.58;62.60
20228;BME280;12195;55.790;37.572;2024-03-08T07:23:48;99580.64;;;0.64;62.35
20228;BME280;12195;55.790;37.572;2024-03-08T07:26:34;99580.52;;;0.70;61.88
20228;BME280;12195;55.790;37.572;2024-03-08T07:29:12;99585.64;;;0.73;61.38
20228;BME280;12195;55.790;37.572;2024-03-08T07:31:45;99585.53;;;0.77;61.78
20228;BME280;12195;55.790;37.572;2024-03-08T07:34:31;99581.23;;;0.78;61.17
20228;BME280;12195;55.790;37.572;2024-03-08T07:37:04;99582.89;;;0.82;61.92
20228;BME280;12195;55.790;37.572;2024-03-08T07:39:38;99580.13;;;0.91;61.02
20228;BME280;12195;55.790;37.572;2024-03-08T07:42:11;99589.53;;;0.95;60.82
20228;BME280;12195;55.790;37.572;2024-03-08T07:44:43;99588.59;;;0.99;61.09
20228;BME280;12195;55.790;37.572;2024-03-08T07:47:18;99583.27;;;1.06;61.72
20228;BME280;12195;55.790;37.572;2024-03-08T07:49:51;99579.63;;;1.18;61.28
20228;BME280;12195;55.790;37.572;2024-03-08T07:52:25;99575.86;;;1.34;61.61
20228;BME280;12195;55.790;37.572;2024-03-08T07:54:58;99578.28;;;1.41;59.65
20228;BME280;12195;55.790;37.572;2024-03-08T07:57:30;99568.66;;;1.48;59.99
20228;BME280;12195;55.790;37.572;2024-03-08T08:00:09;99570.92;;;1.64;60.92
20228;BME280;12195;55.790;37.572;2024-03-08T08:02:39;99564.50;;;1.80;59.90
20228;BME280;12195;55.790;37.572;2024-03-08T08:05:12;99558.98;;;1.95;59.33
20228;BME280;12195;55.790;37.572;2024-03-08T08:07:45;99561.27;;;2.09;59.14
20228;BME280;12195;55.790;37.572;2024-03-08T08:10:20;99563.70;;;2.15;58.33
20228;BME280;12195;55.790;37.572;2024-03-08T08:12:57;99567.06;;;2.20;59.10
20228;BME280;12195;55.790;37.572;2024-03-08T08:15:30;99568.72;;;2.22;57.87
20228;BME280;12195;55.790;37.572;2024-03-08T08:18:02;99568.81;;;2.18;56.64
20228;BME280;12195;55.790;37.572;2024-03-08T08:20:37;99561.33;;;2.06;57.64
20228;BME280;12195;55.790;37.572;2024-03-08T08:23:11;99564.91;;;2.00;56.71
20228;BME280;12195;55.790;37.572;2024-03-08T08:25:43;99560.84;;;1.90;57.23
20228;BME280;12195;55.790;37.572;2024-03-08T08:28:19;99554.00;;;1.88;58.75
20228;BME280;12195;55.790;37.572;2024-03-08T08:30:52;99560.66;;;1.98;59.59
20228;BME280;12195;55.790;37.572;2024-03-08T08:33:25;99555.91;;;2.16;57.71
20228;BME280;12195;55.790;37.572;2024-03-08T08:35:58;99563.58;;;2.21;57.26
20228;BME280;12195;55.790;37.572;2024-03-08T08:38:31;99563.36;;;2.30;57.81
20228;BME280;12195;55.790;37.572;2024-03-08T08:41:04;99552.83;;;2.36;57.17
20228;BME280;12195;55.790;37.572;2024-03-08T08:43:37;99554.56;;;2.37;57.71
20228;BME280;12195;55.790;37.572;2024-03-08T08:46:12;99559.50;;;2.46;56.91
20228;BME280;12195;55.790;37.572;2024-03-08T08:48:49;99557.05;;;2.40;56.42
20228;BME280;12195;55.790;37.572;2024-03-08T08:51:22;99563.92;;;2.42;57.02
20228;BME280;12195;55.790;37.572;2024-03-08T08:54:12;99558.17;;;2.30;55.93
20228;BME280;12195;55.790;37.572;2024-03-08T08:57:03;99558.42;;;2.19;56.20
20228;BME280;12195;55.790;37.572;2024-03-08T08:59:37;99555.23;;;2.08;56.89
20228;BME280;12195;55.790;37.572;2024-03-08T09:02:13;99550.27;;;1.99;57.71
20228;BME280;12195;55.790;37.572;2024-03-08T09:04:48;99544.14;;;2.03;57.89
20228;BME280;12195;55.790;37.572;2024-03-08T09:07:22;99543.95;;;2.11;56.95
20228;BME280;12195;55.790;37.572;2024-03-08T09:09:55;99540.75;;;2.01;56.98
20228;BME280;12195;55.790;37.572;2024-03-08T09:12:48;99537.23;;;2.04;58.51
20228;BME280;12195;55.790;37.572;2024-03-08T09:15:21;99537.88;;;2.13;58.57
20228;BME280;12195;55.790;37.572;2024-03-08T09:17:54;99532.27;;;2.30;59.80
20228;BME280;12195;55.790;37.572;2024-03-08T09:20:26;99533.33;;;2.56;59.56
20228;BME280;12195;55.790;37.572;2024-03-08T09:23:00;99535.22;;;2.83;58.85
20228;BME280;12195;55.790;37.572;2024-03-08T09:25:33;99530.28;;;3.05;57.19
20228;BME280;12195;55.790;37.572;2024-03-08T09:28:05;99533.25;;;3.22;57.27
20228;BME280;12195;55.790;37.572;2024-03-08T09:30:38;99528.42;;;3.40;57.70
20228;BME280;12195;55.790;37.572;2024-03-08T09:33:14;99528.58;;;3.63;56.89
20228;BME280;12195;55.790;37.572;2024-03-08T09:35:49;99532.38;;;3.81;56.94
20228;BME280;12195;55.790;37.572;2024-03-08T09:38:23;99525.66;;;4.01;57.13
20228;BME280;12195;55.790;37.572;2024-03-08T09:40:57;99529.39;;;4.20;55.99
20228;BME280;12195;55.790;37.572;2024-03-08T09:43:30;99522.20;;;4.28;54.83
20228;BME280;12195;55.790;37.572;2024-03-08T09:46:04;99519.30;;;4.37;55.04
20228;BME280;12195;55.790;37.572;2024-03-08T09:48:38;99527.86;;;4.41;53.62
20228;BME280;12195;55.790;37.572;2024-03-08T09:51:13;99530.38;;;4.42;54.31
20228;BME280;12195;55.790;37.572;2024-03-08T09:53:47;99526.27;;;4.37;54.03
20228;BME280;12195;55.790;37.572;2024-03-08T09:56:21;99528.00;;;4.36;53.23
20228;BME280;12195;55.790;37.572;2024-03-08T09:58:54;99522.24;;;4.27;53.02
20228;BME280;12195;55.790;37.572;2024-03-08T10:01:38;99524.41;;;4.14;52.80
20228;BME280;12195;55.790;37.572;2024-03-08T10:04:12;99521.53;;;3.96;54.15
20228;BME280;12195;55.790;37.572;2024-03-08T10:07:02;99524.22;;;3.93;54.42
20228;BME280;12195;55.790;37.572;2024-03-08T10:09:37;99525.05;;;3.93;54.98
20228;BME280;12195;55.790;37.572;2024-03-08T10:12:10;99524.22;;;3.93;54.87
20228;BME280;12195;55.790;37.572;2024-03-08T10:14:43;99520.63;;;3.97;54.73
20228;BME280;12195;55.790;37.572;2024-03-08T10:17:16;99524.39;;;3.87;54.02
20228;BME280;12195;55.790;37.572;2024-03-08T10:19:51;99525.25;;;3.87;54.92
20228;BME280;12195;55.790;37.572;2024-03-08T10:22:26;99517.22;;;3.95;55.99
20228;BME280;12195;55.790;37.572;2024-03-08T10:25:01;99516.13;;;4.02;54.33
20228;BME280;12195;55.790;37.572;2024-03-08T10:27:33;99518.52;;;4.08;54.37
20228;BME280;12195;55.790;37.572;2024-03-08T10:30:15;99504.66;;;4.09;54.62
20228;BME280;12195;55.790;37.572;2024-03-08T10:32:49;99511.55;;;4.10;54.26
20228;BME280;12195;55.790;37.572;2024-03-08T10:35:23;99509.98;;;4.04;53.81
20228;BME280;12195;55.790;37.572;2024-03-08T10:37:57;99513.63;;;3.99;53.76
20228;BME280;12195;55.790;37.572;2024-03-08T10:40:34;99520.63;;;3.97;54.57
20228;BME280;12195;55.790;37.572;2024-03-08T10:43:14;99515.14;;;4.06;53.39
20228;BME280;12195;55.790;37.572;2024-03-08T10:45:46;99514.83;;;3.89;54.21
20228;BME280;12195;55.790;37.572;2024-03-08T10:48:32;99521.91;;;3.84;55.29
20228;BME280;12195;55.790;37.572;2024-03-08T10:51:08;99520.14;;;3.84;55.03
20228;BME280;12195;55.790;37.572;2024-03-08T10:53:45;99520.76;;;3.92;55.28
20228;BME280;12195;55.790;37.572;2024-03-08T10:56:21;99523.23;;;3.97;54.36
20228;BME280;12195;55.790;37.572;2024-03-08T10:58:56;99515.48;;;3.95;54.33
20228;BME280;12195;55.790;37.572;2024-03-08T11:01:29;99513.66;;;3.97;55.25
20228;BME280;12195;55.790;37.572;2024-03-08T11:04:06;99513.94;;;4.16;55.23
20228;BME280;12195;55.790;37.572;2024-03-08T11:06:43;99503.96;;;4.30;54.04
20228;BME280;12195;55.790;37.572;2024-03-08T11:09:30;99509.72;;;4.39;53.27
20228;BME280;12195;55.790;37.572;2024-03-08T11:12:27;99508.55;;;4.48;52.55
20228;BME280;12195;55.790;37.572;2024-03-08T11:15:13;99507.98;;;4.38;52.74
20228;BME280;12195;55.790;37.572;2024-03-08T11:17:48;99507.07;;;4.41;53.44
20228;BME280;12195;55.790;37.572;2024-03-08T11:20:23;99509.85;;;4.35;52.85
20228;BME280;12195;55.790;37.572;2024-03-08T11:23:03;99500.37;;;4.34;53.39
20228;BME280;12195;55.790;37.572;2024-03-08T11:25:40;99504.47;;;4.41;54.28
20228;BME280;12195;55.790;37.572;2024-03-08T11:28:17;99506.63;;;4.53;53.66
20228;BME280;12195;55.790;37.572;2024-03-08T11:33:36;99499.91;;;4.72;52.92
20228;BME280;12195;55.790;37.572;2024-03-08T11:36:10;99504.59;;;4.87;53.60
20228;BME280;12195;55.790;37.572;2024-03-08T11:38:45;99498.97;;;4.99;51.89
20228;BME280;12195;55.790;37.572;2024-03-08T11:41:23;99494.64;;;4.98;52.23
20228;BME280;12195;55.790;37.572;2024-03-08T11:44:05;99493.48;;;5.06;52.45
20228;BME280;12195;55.790;37.572;2024-03-08T11:46:38;99490.53;;;5.15;51.13
20228;BME280;12195;55.790;37.572;2024-03-08T11:49:13;99493.33;;;5.11;51.82
20228;BME280;12195;55.790;37.572;2024-03-08T11:51:52;99482.05;;;5.10;51.67
20228;BME280;12195;55.790;37.572;2024-03-08T11:54:25;99499.30;;;5.13;50.88
20228;BME280;12195;55.790;37.572;2024-03-08T11:56:58;99496.17;;;5.03;51.47
20228;BME280;12195;55.790;37.572;2024-03-08T11:59:36;99494.77;;;4.95;51.57
20228;BME280;12195;55.790;37.572;2024-03-08T12:02:09;99494.88;;;4.92;51.95
20228;BME280;12195;55.790;37.572;2024-03-08T12:04:43;99487.74;;;4.97;51.84
20228;BME280;12195;55.790;37.572;2024-03-08T12:07:19;99501.33;;;5.05;50.99
20228;BME280;12195;55.790;37.572;2024-03-08T12:10:21;99505.86;;;5.00;51.69
20228;BME280;12195;55.790;37.572;2024-03-08T12:12:55;99496.36;;;4.99;51.37
20228;BME280;12195;55.790;37.572;2024-03-08T12:15:30;99497.14;;;5.01;51.47
20228;BME280;12195;55.790;37.572;2024-03-08T12:18:08;99495.40;;;5.01;50.48
20228;BME280;12195;55.790;37.572;2024-03-08T12:20:43;99498.97;;;4.99;50.84
20228;BME280;12195;55.790;37.572;2024-03-08T12:23:18;99508.79;;;4.91;50.98
20228;BME280;12195;55.790;37.572;2024-03-08T12:25:50;99501.13;;;4.86;51.28
20228;BME280;12195;55.790;37.572;2024-03-08T12:28:23;99508.98;;;4.85;51.76
20228;BME280;12195;55.790;37.572;2024-03-08T12:30:57;99508.61;;;4.95;52.09
20228;BME280;12195;55.790;37.572;2024-03-08T12:33:31;99510.78;;;5.07;50.38
20228;BME280;12195;55.790;37.572;2024-03-08T12:36:04;99517.52;;;5.13;50.91
20228;BME280;12195;55.790;37.572;2024-03-08T12:38:39;99509.51;;;5.19;50.85
20228;BME280;12195;55.790;37.572;2024-03-08T12:41:12;99513.52;;;5.27;50.45
20228;BME280;12195;55.790;37.572;2024-03-08T12:43:47;99500.73;;;5.21;49.52
20228;BME280;12195;55.790;37.572;2024-03-08T12:46:22;99493.48;;;5.06;50.03
20228;BME280;12195;55.790;37.572;2024-03-08T12:48:58;99489.75;;;5.13;51.24
20228;BME280;12195;55.790;37.572;2024-03-08T12:51:30;99491.06;;;5.48;51.04
20228;BME280;12195;55.790;37.572;2024-03-08T12:54:05;99503.42;;;5.64;48.40
20228;BME280;12195;55.790;37.572;2024-03-08T12:56:41;99500.86;;;6.29;48.27
20228;BME280;12195;55.790;37.572;2024-03-08T12:59:14;99502.94;;;6.83;45.83
20228;BME280;12195;55.790;37.572;2024-03-08T13:01:47;99506.00;;;6.92;44.73
20228;BME280;12195;55.790;37.572;2024-03-08T13:04:21;99505.36;;;6.67;45.85
20228;BME280;12195;55.790;37.572;2024-03-08T13:06:53;99504.31;;;6.71;47.18
20228;BME280;12195;55.790;37.572;2024-03-08T13:09:27;99510.57;;;6.26;46.58
20228;BME280;12195;55.790;37.572;2024-03-08T13:12:00;99517.92;;;5.95;47.13
20228;BME280;12195;55.790;37.572;2024-03-08T13:14:35;99503.06;;;5.52;48.08
20228;BME280;12195;55.790;37.572;2024-03-08T13:17:08;99513.12;;;5.38;48.30
20228;BME280;12195;55.790;37.572;2024-03-08T13:19:45;99506.64;;;5.02;49.11
20228;BME280;12195;55.790;37.572;2024-03-08T13:22:19;99522.03;;;4.83;49.77
20228;BME280;12195;55.790;37.572;2024-03-08T13:24:56;99517.80;;;4.56;50.37
20228;BME280;12195;55.790;37.572;2024-03-08T13:27:28;99518.30;;;4.41;50.74
20228;BME280;12195;55.790;37.572;2024-03-08T13:30:05;99516.27;;;4.25;50.99
20228;BME280;12195;55.790;37.572;2024-03-08T13:32:41;99511.63;;;4.07;51.77
20228;BME280;12195;55.790;37.572;2024-03-08T13:35:17;99514.66;;;3.93;52.51